Date,TemperatureHighF,TemperatureAvgF,TemperatureLowF,DewpointHighF,DewpointAvgF,DewpointLowF,HumidityHigh,HumidityAvg,HumidityLow,PressureMaxIn,PressureMinIn,WindSpeedMaxMPH,WindSpeedAvgMPH,GustSpeedMaxMPH,PrecipitationSumIn
2013-9-1,89,83,79,81,79,76,100,90,69,29.87,29.76,9,4,16,0.00
2013-9-2,90,81,72,83,79,72,100,92,71,29.86,29.75,27,5,34,1.07
2013-9-3,90,79,75,80,77,75,100,94,69,29.85,29.77,10,5,16,0.00
2013-9-12,89,82,77,76,75,71,99,80,58,29.96,29.80,9,3,11,0.00
2013-9-13,87,78,74,80,76,73,100,93,74,29.80,29.66,10,3,20,0.72
2013-9-14,84,77,70,79,74,66,99,89,80,29.97,29.70,14,5,20,0.05
2013-9-15,86,79,72,80,77,72,100,92,79,30.06,29.96,6,3,12,0.00
2013-9-16,89,80,75,81,78,75,100,93,70,30.04,29.94,20,1,29,0.17
2013-9-17,79,75,71,77,72,67,100,89,72,30.12,29.99,7,3,20,0.00
2013-9-18,78,72,66,69,64,57,98,78,51,30.13,30.05,10,4,22,0.00
2013-9-19,82,75,69,72,68,63,91,80,69,30.07,29.99,7,4,14,0.00
2013-9-20,84,76,72,73,70,67,99,83,63,30.00,29.87,5,1,12,0.00
2013-9-21,84,79,74,76,74,72,99,85,68,29.88,29.65,9,3,19,0.00
2013-9-22,79,75,72,76,72,70,100,92,79,29.77,29.62,15,6,24,0.48
2013-9-23,79,74,69,71,67,61,98,79,61,29.95,29.77,6,3,17,0.00
2013-9-24,77,74,70,71,67,64,89,81,73,29.96,29.82,10,4,20,0.00
2013-9-25,79,74,70,72,70,68,100,88,75,29.82,29.70,8,4,18,0.00
2013-9-26,74,70,66,72,69,64,100,94,82,29.86,29.70,17,6,26,0.66
2013-9-27,78,71,63,69,66,62,99,84,68,30.01,29.85,10,5,17,0.00
2013-9-28,76,69,62,68,64,60,96,84,71,30.06,29.99,10,6,20,0.00
2013-9-29,78,70,62,65,63,60,100,81,58,30.01,29.93,9,5,17,0.00
2013-9-30,78,70,63,66,62,59,96,78,58,29.98,29.90,8,2,14,0.00